KDET/DET METAR and TAF weather

Enter ICAO airport designator
Station Type Date Time Source
KDET METAR 2018/01/16 08:53 UTC NOAA

KDET 160853Z 24008KT 6SM BR FEW009 BKN016 OVC022 M08/M09 A3031 RMK AO2 SLP276 60000 T10781094 53013


Station Type Date Time Source
KDET Decoded METAR 2018/01/16 08:53 UTC NOAA

DETROIT CITY AIRPORT, MI, United States (KDET) 42-25N 083-01W 190M
Jan 16, 2018 - 03:53 AM EST / 2018.01.16 0853 UTC
Wind: from the WSW (240 degrees) at 9 MPH (8 KT):0
Visibility: 6 mile(s):0
Sky conditions: overcast
Weather: mist
Temperature: 18.0 F (-7.8 C)
Windchill: 6 F (-14 C):1
Dew Point: 15.1 F (-9.4 C)
Relative Humidity: 88%
Pressure (altimeter): 30.31 in. Hg (1026 hPa)
Pressure tendency: 0.04 inches (1.3 hPa) higher than three hours ago
ob: KDET 160853Z 24008KT 6SM BR FEW009 BKN016 OVC022 M08/M09 A3031 RMK AO2 SLP276 60000 T10781094 53013
cycle: 9

Station Type Date Time Source
KDET TAF 2018/01/16 06:22 UTC NOAA

TAF KDET 160520Z 1606/1706 25005KT 5SM -SHSN BKN025
FM161400 26005KT 6SM -SHSN BKN020
FM162000 26006KT 3SM -SHSN BKN020
FM170100 30007KT P6SM BKN020


Example: see airport list